createdAt,value
2018-07-14T00:04:28.307Z,9.20
2018-07-14T00:09:30.028Z,8.70
2018-07-14T00:14:31.757Z,8.60
2018-07-14T00:19:33.600Z,8.63
2018-07-14T00:24:35.585Z,9.40
2018-07-14T00:29:37.342Z,11.88
2018-07-14T00:34:39.389Z,10.90
2018-07-14T00:39:41.221Z,11.68
2018-07-14T00:44:42.931Z,10.55
2018-07-14T00:49:44.689Z,11.25
2018-07-14T00:54:46.508Z,10.90
2018-07-14T00:59:48.710Z,11.03
2018-07-14T01:04:50.524Z,11.30
2018-07-14T01:09:52.292Z,11.15
2018-07-14T01:14:54.069Z,9.83
2018-07-14T01:19:55.888Z,11.68
2018-07-14T01:24:57.607Z,10.38
2018-07-14T01:29:59.362Z,10.25
2018-07-14T01:35:03.481Z,9.80
2018-07-14T01:40:05.332Z,10.50
2018-07-14T01:45:07.965Z,10.40
2018-07-14T01:50:09.690Z,11.00
2018-07-14T01:55:11.521Z,11.90
2018-07-14T02:00:13.644Z,11.80
2018-07-14T02:05:15.376Z,11.80
2018-07-14T02:10:17.120Z,10.90
2018-07-14T02:15:19.063Z,12.00
2018-07-14T02:20:20.865Z,12.03
2018-07-14T02:25:22.615Z,11.70
2018-07-14T02:30:24.372Z,12.63
2018-07-14T02:35:26.185Z,12.95
2018-07-14T02:40:27.946Z,12.93
2018-07-14T02:45:29.722Z,13.32
2018-07-14T02:50:31.505Z,13.18
2018-07-14T02:55:33.325Z,13.20
2018-07-14T03:00:35.091Z,13.28
2018-07-14T03:05:36.844Z,13.62
2018-07-14T03:10:38.620Z,13.72
2018-07-14T03:15:40.383Z,13.03
2018-07-14T03:20:42.117Z,12.68
2018-07-14T03:25:43.871Z,12.03
2018-07-14T03:30:45.736Z,12.40
2018-07-14T03:35:47.506Z,12.88
2018-07-14T03:40:49.347Z,12.45
2018-07-14T03:45:51.475Z,12.55
2018-07-14T03:50:53.252Z,12.63
2018-07-14T03:55:55.392Z,12.75
2018-07-14T04:00:57.172Z,12.03
2018-07-14T04:05:58.952Z,11.73
2018-07-14T04:11:00.712Z,12.00
2018-07-14T04:16:02.500Z,12.23
2018-07-14T04:21:04.271Z,11.63
2018-07-14T04:26:06.024Z,11.93
2018-07-14T04:31:07.893Z,12.10
2018-07-14T04:36:09.693Z,11.63
2018-07-14T04:41:11.420Z,10.85
2018-07-14T04:46:13.159Z,12.07
2018-07-14T04:51:15.007Z,11.73
2018-07-14T04:56:16.759Z,11.35
2018-07-14T05:01:18.544Z,11.25
2018-07-14T05:06:20.323Z,11.18
2018-07-14T05:11:22.148Z,11.00
2018-07-14T05:16:23.926Z,11.38
2018-07-14T05:21:25.761Z,11.10
2018-07-14T05:26:27.621Z,11.43
2018-07-14T05:31:29.405Z,11.33
2018-07-14T05:36:31.238Z,11.28
2018-07-14T05:41:33.031Z,11.00
2018-07-14T05:46:34.820Z,11.45
2018-07-14T05:51:36.653Z,10.70
2018-07-14T05:56:38.479Z,11.18
2018-07-14T06:01:40.428Z,11.18
2018-07-14T06:06:42.204Z,10.70
2018-07-14T06:11:44.058Z,11.88
2018-07-14T06:16:45.827Z,11.25
2018-07-14T06:21:47.709Z,12.63
2018-07-14T06:26:49.492Z,11.35
2018-07-14T06:31:51.325Z,10.08
2018-07-14T06:36:53.113Z,11.60
2018-07-14T06:41:54.839Z,9.90
2018-07-14T06:46:56.591Z,9.90
2018-07-14T06:51:58.374Z,10.58
2018-07-14T06:57:00.173Z,10.03
2018-07-14T07:02:01.954Z,9.05
2018-07-14T07:07:03.844Z,9.53
2018-07-14T07:12:05.664Z,9.95
2018-07-14T07:17:07.474Z,10.18
2018-07-14T07:22:09.770Z,9.58
2018-07-14T07:27:12.562Z,10.00
2018-07-14T07:32:15.090Z,10.18
2018-07-14T07:37:17.605Z,10.05
2018-07-14T07:42:20.266Z,8.80
2018-07-14T07:47:23.587Z,9.75
2018-07-14T07:52:26.032Z,8.98
2018-07-14T07:57:29.324Z,8.63
2018-07-14T08:02:31.879Z,9.45
2018-07-14T08:07:34.310Z,8.15
2018-07-14T08:12:37.037Z,8.33
2018-07-14T08:17:39.580Z,7.85
2018-07-14T08:22:42.085Z,7.90
2018-07-14T08:27:44.508Z,7.58
2018-07-14T08:32:46.936Z,8.50
2018-07-14T08:37:49.372Z,7.75
2018-07-14T08:42:52.178Z,7.97
2018-07-14T08:47:54.605Z,9.33
2018-07-14T08:52:57.140Z,7.72
2018-07-14T08:57:59.573Z,7.60
2018-07-14T09:03:02.070Z,7.75
2018-07-14T09:08:04.573Z,8.30
2018-07-14T09:13:07.097Z,7.97
2018-07-14T09:18:09.571Z,7.08
2018-07-14T09:23:12.576Z,6.15
2018-07-14T09:28:14.988Z,6.00
2018-07-14T09:33:17.405Z,5.17
2018-07-14T09:38:20.159Z,4.85
2018-07-14T09:43:22.781Z,4.10
2018-07-14T09:48:25.307Z,5.53
2018-07-14T09:53:27.762Z,4.60
2018-07-14T09:58:30.350Z,4.10
2018-07-14T10:03:32.979Z,3.77
2018-07-14T10:08:35.508Z,3.65
2018-07-14T10:13:38.056Z,3.62
2018-07-14T10:18:40.605Z,4.17
2018-07-14T10:23:43.078Z,3.17
2018-07-14T10:28:45.584Z,3.40
2018-07-14T10:33:48.057Z,2.60
2018-07-14T10:38:50.602Z,2.70
2018-07-14T10:43:53.078Z,2.17
2018-07-14T10:48:55.683Z,2.22
2018-07-14T10:53:58.216Z,2.35
2018-07-14T10:59:00.680Z,2.22
2018-07-14T11:04:03.269Z,2.40
2018-07-14T11:09:06.693Z,2.15
2018-07-14T11:14:09.149Z,2.00
2018-07-14T11:19:11.640Z,1.72
2018-07-14T11:24:14.350Z,1.50
2018-07-14T11:29:17.029Z,1.20
2018-07-14T11:34:19.624Z,2.10
2018-07-14T11:39:22.104Z,1.90
2018-07-14T11:44:24.943Z,1.60
2018-07-14T11:49:27.464Z,1.50
2018-07-14T11:54:34.204Z,1.77
2018-07-14T11:59:36.847Z,1.30
2018-07-14T12:04:40.540Z,1.50
2018-07-14T12:09:43.672Z,1.62
2018-07-14T12:14:46.545Z,1.40
2018-07-14T12:25:14.436Z,1.20
2018-07-14T12:47:04.464Z,1.40
2018-07-14T13:02:51.272Z,1.20
2018-07-14T13:07:55.164Z,1.30
2018-07-14T13:13:00.797Z,1.30
2018-07-14T13:18:14.641Z,1.27
2018-07-14T13:39:25.435Z,1.30
2018-07-14T13:49:54.301Z,1.67
2018-07-14T13:54:57.239Z,1.50
2018-07-14T14:00:06.441Z,1.42
2018-07-14T14:05:10.311Z,1.70
2018-07-14T14:10:14.727Z,1.60
2018-07-14T14:15:18.232Z,1.70
2018-07-14T14:20:20.937Z,1.80
2018-07-14T14:25:24.157Z,1.60
2018-07-14T14:30:27.337Z,1.70
2018-07-14T14:35:30.599Z,1.90
2018-07-14T14:40:33.214Z,1.80
2018-07-14T14:45:35.817Z,1.77
2018-07-14T14:50:38.392Z,1.80
2018-07-14T14:55:41.043Z,2.00
2018-07-14T15:00:44.253Z,1.90
2018-07-14T15:05:46.850Z,2.00
2018-07-14T15:10:49.830Z,1.90
2018-07-14T15:15:52.344Z,1.45
2018-07-14T15:20:55.799Z,1.67
2018-07-14T15:26:00.281Z,1.40
2018-07-14T15:31:03.064Z,1.60
2018-07-14T15:36:05.894Z,1.90
2018-07-14T15:46:22.737Z,2.33
2018-07-14T15:56:56.570Z,1.92
2018-07-14T16:02:04.463Z,2.25
2018-07-14T16:07:21.101Z,2.00
2018-07-14T16:17:59.934Z,2.40
2018-07-14T16:23:06.943Z,2.35
2018-07-14T16:28:11.441Z,2.60
2018-07-14T16:33:15.526Z,2.45
2018-07-14T16:38:21.543Z,2.90
2018-07-14T16:43:41.939Z,2.70
2018-07-14T16:48:49.891Z,2.17
2018-07-14T16:59:10.258Z,3.15
2018-07-14T17:04:23.236Z,2.95
2018-07-14T17:09:25.956Z,3.20
2018-07-14T17:14:28.655Z,3.00
2018-07-14T17:19:31.514Z,3.80
2018-07-14T17:24:35.805Z,3.00
2018-07-14T17:29:38.872Z,3.33
2018-07-14T17:34:41.635Z,3.90
2018-07-14T17:39:44.274Z,3.47
2018-07-14T17:44:47.127Z,5.47
2018-07-14T17:49:49.729Z,4.10
2018-07-14T17:54:53.685Z,3.50
2018-07-14T17:59:57.109Z,4.05
2018-07-14T18:05:03.326Z,3.70
2018-07-14T18:10:08.996Z,3.83
2018-07-14T18:15:11.567Z,4.00
2018-07-14T18:20:15.658Z,3.40
2018-07-14T18:25:18.405Z,4.70
2018-07-14T18:30:21.181Z,3.15
2018-07-14T18:35:23.857Z,3.57
2018-07-14T18:40:26.573Z,3.47
2018-07-14T18:45:29.714Z,3.58
2018-07-14T19:01:16.455Z,3.25
2018-07-14T19:06:21.210Z,2.95
2018-07-14T19:11:24.393Z,3.02
2018-07-14T19:16:27.090Z,3.52
2018-07-14T19:21:29.620Z,3.12
2018-07-14T19:26:32.406Z,3.12
2018-07-14T19:31:36.164Z,2.80
2018-07-14T19:36:38.776Z,2.98
2018-07-14T19:41:41.211Z,2.65
2018-07-14T19:46:43.699Z,6.45
2018-07-14T19:51:46.172Z,3.05
2018-07-14T19:56:50.173Z,3.42
2018-07-14T20:01:53.128Z,3.20
2018-07-14T20:06:55.790Z,3.00
2018-07-14T20:11:59.472Z,3.10
2018-07-14T20:17:02.340Z,2.98
2018-07-14T20:22:04.906Z,3.67
2018-07-14T20:27:07.673Z,9.45
2018-07-14T20:32:10.202Z,3.27
2018-07-14T20:37:12.834Z,2.67
2018-07-14T20:42:15.368Z,3.70
2018-07-14T20:47:17.825Z,3.87
2018-07-14T20:52:20.385Z,3.20
2018-07-14T20:57:22.992Z,3.12
2018-07-14T21:02:25.644Z,3.90
2018-07-14T21:07:28.154Z,3.47
2018-07-14T21:12:30.780Z,3.72
2018-07-14T21:17:33.253Z,3.58
2018-07-14T21:22:35.843Z,4.37
2018-07-14T21:27:38.761Z,4.28
2018-07-14T21:32:41.244Z,3.90
2018-07-14T21:37:43.733Z,4.50
2018-07-14T21:42:47.385Z,5.22
2018-07-14T21:47:50.717Z,5.42
2018-07-14T21:52:53.422Z,5.22
2018-07-14T21:57:56.232Z,5.08
2018-07-14T22:03:00.057Z,5.20
2018-07-14T22:08:02.872Z,5.17
2018-07-14T22:13:05.432Z,4.75
2018-07-14T22:18:08.161Z,5.20
2018-07-14T22:23:10.710Z,4.87
2018-07-14T22:28:13.384Z,5.00
2018-07-14T22:33:15.993Z,4.80
2018-07-14T22:38:18.554Z,4.75
2018-07-14T22:43:21.093Z,5.22
2018-07-14T22:48:23.674Z,5.45
2018-07-14T22:53:26.208Z,5.20
2018-07-14T22:58:29.253Z,4.95
2018-07-14T23:03:31.801Z,4.75
2018-07-14T23:08:34.414Z,5.00
2018-07-14T23:13:37.840Z,5.15
2018-07-14T23:18:40.330Z,4.58
2018-07-14T23:23:42.813Z,4.60
2018-07-14T23:28:45.358Z,5.03
2018-07-14T23:33:47.963Z,4.67
2018-07-14T23:38:51.076Z,4.97
2018-07-14T23:43:53.649Z,5.22
2018-07-14T23:48:56.265Z,5.40
2018-07-14T23:53:59.225Z,5.25
2018-07-14T23:59:01.779Z,4.60
